Time;durP1;ratioP1;P1;durP2;ratioP2;P2;SDS_P1;SDS_P2;PMS_P1;PMS_P2;Temp;Humidity;BMP_temperature;BMP_pressure;BME280_temperature;BME280_humidity;BME280_pressure;Samples;Min_cycle;Max_cycle;Signal;HPM_P1;HPM_P2
2023/01/28 00:01:39;;;;;;;13.68;9.05;;;1.60;99.90;;;;;;5057730;28;20037;-76
2023/01/28 00:06:52;;;;;;;13.80;8.15;;;1.70;99.90;;;;;;5057334;28;20466;-77
2023/01/28 00:09:19;;;;;;;13.88;7.97;;;1.80;99.90;;;;;;5056156;28;20044;-77
2023/01/28 00:11:46;;;;;;;15.02;8.30;;;1.80;99.90;;;;;;5057026;28;20045;-76
2023/01/28 00:14:12;;;;;;;14.27;8.38;;;1.80;99.90;;;;;;5057567;28;20127;-76
2023/01/28 00:16:39;;;;;;;12.60;8.05;;;1.80;99.90;;;;;;5053030;28;20041;-77
2023/01/28 00:19:06;;;;;;;12.88;8.38;;;1.80;99.90;;;;;;5037301;28;20099;-76
2023/01/28 00:21:32;;;;;;;13.80;6.82;;;1.80;99.90;;;;;;5019698;28;20073;-76
2023/01/28 00:23:59;;;;;;;11.70;7.75;;;1.80;99.90;;;;;;5018953;28;20412;-76
2023/01/28 00:26:26;;;;;;;12.52;7.63;;;1.80;99.90;;;;;;5039413;28;20531;-76
2023/01/28 00:28:53;;;;;;;12.65;7.40;;;1.90;99.90;;;;;;5056351;28;20033;-76
2023/01/28 00:31:19;;;;;;;15.98;8.15;;;2.00;99.90;;;;;;5039651;28;20040;-76
2023/01/28 00:33:47;;;;;;;14.63;6.78;;;1.90;99.90;;;;;;5039990;28;20044;-77
2023/01/28 00:36:14;;;;;;;17.27;9.30;;;1.90;99.90;;;;;;5038919;28;20041;-77
2023/01/28 00:38:41;;;;;;;14.10;7.68;;;1.90;99.90;;;;;;5039152;28;20450;-77
2023/01/28 00:41:09;;;;;;;17.17;7.90;;;1.90;99.90;;;;;;5057294;28;20041;-76
2023/01/28 00:43:35;;;;;;;14.48;6.95;;;1.90;99.90;;;;;;5038561;28;20040;-79
2023/01/28 00:46:02;;;;;;;11.88;7.15;;;2.00;99.90;;;;;;5039699;28;20049;-79
2023/01/28 00:48:29;;;;;;;13.85;6.60;;;2.00;99.90;;;;;;5039066;28;20160;-77
2023/01/28 00:50:56;;;;;;;11.43;7.07;;;2.00;99.90;;;;;;5056118;28;20040;-77
2023/01/28 00:53:23;;;;;;;17.58;8.73;;;2.00;99.90;;;;;;5039157;28;20402;-76
2023/01/28 00:55:49;;;;;;;14.05;8.07;;;2.10;99.90;;;;;;5038997;28;20051;-76
2023/01/28 00:58:16;;;;;;;11.23;7.00;;;2.10;99.90;;;;;;5056410;28;20044;-78
2023/01/28 01:00:42;;;;;;;13.75;8.45;;;2.10;99.90;;;;;;5039132;28;20472;-76
2023/01/28 01:03:09;;;;;;;15.48;7.97;;;2.10;99.90;;;;;;5037809;28;20037;-76
2023/01/28 01:05:36;;;;;;;13.35;7.95;;;2.10;99.90;;;;;;5038933;28;20045;-77
2023/01/28 01:08:03;;;;;;;18.05;8.35;;;2.20;99.90;;;;;;5038950;28;20037;-77
2023/01/28 01:10:30;;;;;;;16.58;7.43;;;2.10;99.90;;;;;;5055601;28;20033;-76
2023/01/28 01:12:59;;;;;;;11.55;7.40;;;2.10;99.90;;;;;;5038709;28;20071;-77
2023/01/28 01:15:26;;;;;;;11.20;7.60;;;2.10;99.90;;;;;;5022353;28;20053;-77
2023/01/28 01:17:52;;;;;;;13.57;8.75;;;2.10;99.90;;;;;;5059519;28;20048;-76
2023/01/28 01:20:19;;;;;;;17.30;8.20;;;2.00;99.90;;;;;;5075382;28;20055;-77
2023/01/28 01:22:46;;;;;;;16.15;8.18;;;2.10;99.90;;;;;;5075446;28;20037;-76
2023/01/28 01:25:12;;;;;;;11.82;7.63;;;2.10;99.90;;;;;;5076484;28;20343;-76
2023/01/28 01:27:39;;;;;;;16.33;7.03;;;2.10;99.90;;;;;;5066786;28;20382;-77
2023/01/28 01:30:07;;;;;;;11.40;7.30;;;2.20;99.90;;;;;;5073231;28;20055;-76
2023/01/28 01:32:34;;;;;;;11.60;7.38;;;2.20;99.90;;;;;;5075779;28;20037;-76
2023/01/28 01:35:00;;;;;;;11.18;7.50;;;2.20;99.90;;;;;;5075184;28;20437;-76
2023/01/28 01:37:27;;;;;;;11.48;6.43;;;2.20;99.90;;;;;;5073048;28;20044;-76
2023/01/28 01:39:55;;;;;;;15.95;7.25;;;2.30;99.90;;;;;;5075367;28;20130;-77
2023/01/28 01:42:22;;;;;;;14.05;7.47;;;2.30;99.90;;;;;;5074396;28;20040;-77
2023/01/28 01:44:49;;;;;;;11.85;7.38;;;2.30;99.90;;;;;;5074612;28;20040;-76
2023/01/28 01:47:15;;;;;;;10.77;6.38;;;2.30;99.90;;;;;;5075511;28;20127;-76
2023/01/28 01:49:42;;;;;;;13.07;7.75;;;2.30;99.90;;;;;;5074791;28;20033;-77
2023/01/28 01:52:09;;;;;;;12.18;6.60;;;2.30;99.90;;;;;;5075623;28;20051;-76
2023/01/28 01:54:35;;;;;;;9.10;5.85;;;2.30;99.90;;;;;;5074484;28;20148;-76
2023/01/28 01:57:02;;;;;;;13.60;8.02;;;2.30;99.90;;;;;;5073542;28;20052;-76
2023/01/28 01:59:29;;;;;;;10.52;6.82;;;2.30;99.90;;;;;;5074394;28;20040;-77
2023/01/28 02:01:55;;;;;;;10.32;6.13;;;2.30;99.90;;;;;;5075322;28;20033;-77
2023/01/28 02:04:22;;;;;;;10.77;7.05;;;2.30;99.90;;;;;;5074563;28;20412;-76
2023/01/28 02:06:49;;;;;;;11.25;7.28;;;2.30;99.90;;;;;;5074059;28;20033;-76
2023/01/28 02:09:18;;;;;;;11.02;6.38;;;2.40;99.90;;;;;;5073498;28;20470;-75
2023/01/28 02:11:48;;;;;;;11.32;6.72;;;2.40;99.90;;;;;;5074953;28;20029;-75
2023/01/28 02:14:15;;;;;;;10.23;6.32;;;2.40;99.90;;;;;;5074062;28;20048;-76
2023/01/28 02:16:56;;;;;;;13.80;6.15;;;2.30;99.90;;;;;;5072877;28;20052;-78
2023/01/28 02:19:23;;;;;;;11.88;7.78;;;2.40;99.90;;;;;;5074692;28;20135;-76
2023/01/28 02:21:49;;;;;;;11.18;6.68;;;2.40;99.90;;;;;;5074039;28;20051;-77
2023/01/28 02:24:16;;;;;;;11.70;6.93;;;2.40;99.90;;;;;;5074057;28;20048;-77
2023/01/28 02:26:43;;;;;;;11.07;5.97;;;2.50;99.90;;;;;;5073966;28;20047;-77
2023/01/28 02:29:10;;;;;;;13.50;7.05;;;2.50;99.90;;;;;;5056659;28;20143;-77
2023/01/28 02:31:37;;;;;;;12.55;5.65;;;2.50;99.90;;;;;;5057450;28;20048;-78
2023/01/28 02:34:07;;;;;;;9.63;6.13;;;2.60;99.90;;;;;;5073917;28;20037;-77
2023/01/28 02:36:34;;;;;;;12.05;6.35;;;2.60;99.90;;;;;;5089948;28;20055;-76
2023/01/28 02:39:01;;;;;;;11.75;6.72;;;2.70;99.90;;;;;;5074016;28;20040;-76
2023/01/28 02:41:27;;;;;;;11.95;6.13;;;2.70;99.90;;;;;;5057565;28;20037;-77
2023/01/28 02:43:54;;;;;;;11.50;6.35;;;2.70;99.90;;;;;;5072874;28;20044;-77
2023/01/28 02:49:07;;;;;;;14.48;7.97;;;2.90;99.90;;;;;;5071681;28;20062;-77
2023/01/28 02:51:34;;;;;;;9.27;4.90;;;3.00;99.90;;;;;;5073677;28;20048;-77
2023/01/28 02:54:02;;;;;;;10.45;5.78;;;3.00;99.90;;;;;;5074706;28;20124;-77
2023/01/28 02:56:29;;;;;;;9.13;4.95;;;3.10;99.90;;;;;;5072555;28;20045;-77
2023/01/28 02:58:59;;;;;;;11.05;4.82;;;3.10;99.90;;;;;;5073429;28;20067;-77
2023/01/28 03:01:26;;;;;;;9.23;5.22;;;3.10;99.90;;;;;;5074019;28;20041;-77
2023/01/28 03:03:54;;;;;;;10.98;4.65;;;3.20;99.90;;;;;;5073496;28;20347;-76
2023/01/28 03:06:21;;;;;;;9.65;5.03;;;3.20;99.90;;;;;;5090172;28;20045;-76
2023/01/28 03:36:49;;;;;;;6.75;3.10;;;3.40;99.90;;;;;;5072290;28;20437;-77
2023/01/28 03:39:38;;;;;;;6.35;2.95;;;3.40;99.90;;;;;;5073163;28;20059;-77
2023/01/28 03:42:08;;;;;;;9.05;3.28;;;3.50;99.90;;;;;;5073251;28;20479;-76
2023/01/28 03:44:51;;;;;;;8.27;3.13;;;3.50;99.90;;;;;;5073454;28;20045;-77
2023/01/28 03:47:18;;;;;;;6.35;3.00;;;3.50;99.90;;;;;;5072866;28;20055;-76
2023/01/28 03:49:48;;;;;;;8.10;3.40;;;3.50;99.90;;;;;;5072042;28;20123;-76
2023/01/28 03:52:17;;;;;;;9.20;3.17;;;3.50;99.90;;;;;;5073334;28;20139;-77
2023/01/28 03:54:46;;;;;;;5.32;3.65;;;3.50;99.90;;;;;;5073959;28;20166;-76
2023/01/28 03:57:14;;;;;;;7.05;3.13;;;3.50;99.90;;;;;;5071923;28;20037;-77
2023/01/28 03:59:41;;;;;;;6.28;2.65;;;3.50;99.90;;;;;;5075598;28;20059;-76
2023/01/28 04:02:09;;;;;;;8.75;2.97;;;3.50;99.90;;;;;;5076152;28;20109;-76
2023/01/28 04:04:36;;;;;;;10.85;3.80;;;3.50;99.90;;;;;;5059890;28;20054;-76
2023/01/28 04:07:03;;;;;;;4.32;2.40;;;3.50;99.90;;;;;;5077324;28;20045;-77
2023/01/28 04:09:48;;;;;;;7.38;2.85;;;3.50;99.90;;;;;;5076085;28;20113;-76
2023/01/28 04:12:36;;;;;;;7.70;2.45;;;3.50;99.90;;;;;;5077770;28;20075;-77
2023/01/28 04:15:14;;;;;;;7.15;2.30;;;3.50;99.90;;;;;;5076531;28;20040;-76
2023/01/28 04:17:43;;;;;;;4.60;2.30;;;3.60;99.90;;;;;;5074927;28;20067;-77
2023/01/28 04:20:11;;;;;;;5.65;2.60;;;3.60;99.90;;;;;;5076199;28;20051;-78
2023/01/28 04:22:38;;;;;;;10.63;3.90;;;3.60;99.90;;;;;;5075819;28;20475;-77
2023/01/28 04:25:07;;;;;;;;;;;3.60;99.90;;;;;;5076809;28;20450;-76
2023/01/28 04:27:34;;;;;;;4.50;2.30;;;3.60;99.90;;;;;;5075697;28;19946;-76
2023/01/28 04:30:10;;;;;;;8.82;2.63;;;3.60;99.90;;;;;;5075532;28;20139;-76
2023/01/28 04:32:39;;;;;;;;;;;3.60;99.90;;;;;;5060909;28;20049;-77
2023/01/28 04:35:19;;;;;;;4.25;2.35;;;3.60;99.90;;;;;;5076156;28;20311;-77
2023/01/28 04:38:14;;;;;;;4.57;2.38;;;3.70;99.90;;;;;;5022679;28;20141;-76
2023/01/28 04:41:07;;;;;;;5.30;2.70;;;3.60;99.90;;;;;;5060831;28;20060;-76
2023/01/28 04:43:35;;;;;;;5.65;2.60;;;3.70;99.90;;;;;;5075203;28;20049;-77
2023/01/28 04:46:20;;;;;;;5.93;2.97;;;3.60;99.90;;;;;;5076672;28;20046;-77
2023/01/28 04:48:54;;;;;;;5.70;2.25;;;3.70;99.90;;;;;;5074903;28;20041;-76
2023/01/28 04:51:38;;;;;;;7.63;3.30;;;3.70;99.90;;;;;;5077036;28;20379;-77
2023/01/28 04:54:28;;;;;;;3.55;2.08;;;3.70;99.90;;;;;;5048129;28;20068;-77
2023/01/28 04:56:58;;;;;;;11.48;3.53;;;3.70;99.90;;;;;;5074424;28;20493;-78
2023/01/28 04:59:24;;;;;;;6.03;2.75;;;3.70;99.90;;;;;;5075701;28;20051;-76
2023/01/28 05:01:51;;;;;;;6.05;2.80;;;3.70;99.90;;;;;;5075567;28;20080;-76
2023/01/28 05:04:18;;;;;;;5.35;2.22;;;3.70;99.90;;;;;;5074414;28;20089;-76
2023/01/28 05:06:45;;;;;;;9.32;3.05;;;3.70;99.90;;;;;;5075574;28;20048;-76
2023/01/28 05:09:15;;;;;;;6.38;2.72;;;3.80;99.90;;;;;;5074442;28;20041;-77
2023/01/28 05:11:42;;;;;;;7.45;2.13;;;3.80;99.90;;;;;;5074468;28;20079;-77
2023/01/28 05:14:11;;;;;;;4.75;2.80;;;3.70;99.90;;;;;;5075426;28;20088;-76
2023/01/28 05:16:48;;;;;;;6.75;2.60;;;3.70;99.90;;;;;;5074022;28;20117;-77
2023/01/28 05:19:16;;;;;;;5.93;2.72;;;3.70;99.90;;;;;;5075170;28;20083;-77
2023/01/28 05:21:45;;;;;;;4.95;2.47;;;3.70;99.90;;;;;;5075050;28;20051;-78
2023/01/28 05:24:35;;;;;;;5.07;2.30;;;3.70;99.90;;;;;;5074966;28;20051;-77
2023/01/28 05:27:02;;;;;;;6.05;2.92;;;3.70;99.90;;;;;;5074852;28;20055;-77
2023/01/28 05:29:29;;;;;;;8.55;3.45;;;3.70;99.90;;;;;;5075011;28;20067;-76
2023/01/28 05:31:55;;;;;;;7.88;2.15;;;3.70;99.90;;;;;;5075072;28;20367;-77
2023/01/28 05:34:23;;;;;;;6.05;2.42;;;3.70;99.90;;;;;;5058355;28;20048;-76
2023/01/28 05:36:50;;;;;;;5.38;2.42;;;3.70;99.90;;;;;;5073847;28;20051;-77
2023/01/28 05:39:27;;;;;;;9.25;3.10;;;3.70;99.90;;;;;;5075239;28;20040;-76
2023/01/28 05:41:54;;;;;;;3.60;2.75;;;3.70;99.90;;;;;;5058158;28;20466;-77
2023/01/28 05:44:21;;;;;;;4.97;2.70;;;3.70;99.90;;;;;;5057138;28;20132;-77
2023/01/28 05:46:57;;;;;;;6.93;3.00;;;3.70;99.90;;;;;;5074471;28;20044;-77
2023/01/28 05:49:42;;;;;;;6.78;2.90;;;3.70;99.90;;;;;;5074679;28;20056;-77
2023/01/28 05:52:25;;;;;;;7.07;3.53;;;3.70;99.90;;;;;;5075907;28;20359;-75
2023/01/28 05:54:54;;;;;;;5.25;2.70;;;3.70;99.90;;;;;;5074721;28;20062;-78
2023/01/28 05:57:20;;;;;;;6.82;3.30;;;3.70;99.90;;;;;;5057122;28;20447;-76
2023/01/28 05:59:49;;;;;;;7.60;3.35;;;3.80;99.90;;;;;;5058281;28;20536;-77
2023/01/28 06:02:15;;;;;;;5.15;3.38;;;3.70;99.90;;;;;;5073895;28;20043;-78
2023/01/28 06:04:43;;;;;;;6.10;2.92;;;3.80;99.90;;;;;;5074332;28;20052;-76
2023/01/28 06:07:12;;;;;;;9.85;3.60;;;3.80;99.90;;;;;;5057725;28;20662;-76
2023/01/28 06:09:41;;;;;;;8.80;3.45;;;3.80;99.90;;;;;;5057139;28;20051;-76
2023/01/28 06:12:09;;;;;;;6.15;2.75;;;3.80;99.90;;;;;;5057932;28;20036;-77
2023/01/28 06:14:50;;;;;;;6.22;3.90;;;3.70;99.90;;;;;;5074737;28;20098;-77
2023/01/28 06:17:35;;;;;;;10.68;3.53;;;3.70;99.90;;;;;;5073113;28;20071;-76
2023/01/28 06:20:07;;;;;;;6.95;3.42;;;3.70;99.90;;;;;;5074201;28;20051;-78
2023/01/28 06:22:36;;;;;;;14.48;3.53;;;3.70;99.90;;;;;;5056825;28;20040;-75
2023/01/28 06:25:03;;;;;;;5.43;3.78;;;3.60;99.90;;;;;;5075468;28;20049;-75
2023/01/28 06:27:31;;;;;;;6.05;3.63;;;3.60;99.90;;;;;;5073707;28;20046;-76
2023/01/28 06:29:58;;;;;;;5.88;3.40;;;3.70;99.90;;;;;;5073194;28;20044;-76
2023/01/28 06:32:24;;;;;;;8.05;4.20;;;3.60;99.90;;;;;;5074112;28;20053;-77
2023/01/28 06:34:52;;;;;;;11.43;4.45;;;3.70;99.90;;;;;;5074106;28;20124;-77
2023/01/28 06:37:19;;;;;;;7.40;4.63;;;3.70;99.90;;;;;;5074194;28;20040;-76
2023/01/28 06:39:45;;;;;;;7.30;3.80;;;3.70;99.90;;;;;;5075378;28;20497;-76
2023/01/28 06:42:12;;;;;;;6.88;3.90;;;3.70;99.90;;;;;;5073925;28;20060;-77
2023/01/28 06:44:39;;;;;;;11.20;4.53;;;3.70;99.90;;;;;;5073729;28;20036;-76
2023/01/28 06:47:06;;;;;;;7.35;4.25;;;3.70;99.90;;;;;;5074726;28;20358;-76
2023/01/28 06:49:32;;;;;;;6.15;3.65;;;3.70;99.90;;;;;;5074025;28;20036;-77
2023/01/28 06:51:59;;;;;;;5.75;4.30;;;3.60;99.90;;;;;;5075065;28;20040;-76
2023/01/28 06:54:26;;;;;;;6.78;3.90;;;3.60;99.90;;;;;;5074879;28;20041;-76
2023/01/28 06:56:52;;;;;;;6.90;3.95;;;3.60;99.90;;;;;;5073617;28;20075;-77
2023/01/28 06:59:19;;;;;;;6.93;4.95;;;3.60;99.90;;;;;;5074219;28;20356;-76
2023/01/28 07:01:46;;;;;;;7.63;3.90;;;3.70;99.90;;;;;;5074950;28;20087;-76
2023/01/28 07:04:14;;;;;;;6.35;4.15;;;3.60;99.90;;;;;;5073489;28;20059;-78
2023/01/28 07:06:40;;;;;;;6.75;4.43;;;3.60;99.90;;;;;;5074645;28;20033;-77
2023/01/28 07:09:07;;;;;;;6.68;4.28;;;3.60;99.90;;;;;;5072708;28;20052;-77
2023/01/28 07:11:33;;;;;;;7.55;4.75;;;3.70;99.90;;;;;;5059853;28;20399;-78
2023/01/28 07:14:00;;;;;;;7.68;4.05;;;3.70;99.90;;;;;;5073998;28;20036;-77
2023/01/28 07:16:27;;;;;;;9.68;4.57;;;3.70;99.90;;;;;;5063915;28;20055;-77
2023/01/28 07:18:54;;;;;;;6.88;4.35;;;3.70;99.90;;;;;;5057187;28;20044;-76
2023/01/28 07:21:20;;;;;;;7.55;4.50;;;3.70;99.90;;;;;;5073291;28;20044;-78
2023/01/28 07:23:47;;;;;;;6.05;4.10;;;3.70;99.90;;;;;;5079854;28;20047;-78
2023/01/28 07:26:14;;;;;;;7.10;4.53;;;3.70;99.90;;;;;;5077865;28;20110;-78
2023/01/28 07:28:41;;;;;;;7.57;5.38;;;3.60;99.90;;;;;;5053366;28;20033;-77
2023/01/28 07:31:07;;;;;;;7.93;4.70;;;3.60;99.90;;;;;;5053043;28;20140;-77
2023/01/28 07:33:34;;;;;;;8.63;4.25;;;3.70;99.90;;;;;;5054162;28;20049;-77
2023/01/28 07:36:01;;;;;;;7.43;4.93;;;3.70;99.90;;;;;;5068448;28;20052;-76
2023/01/28 07:38:28;;;;;;;7.05;4.10;;;3.70;99.90;;;;;;5078038;28;20493;-76
2023/01/28 07:40:54;;;;;;;6.95;4.00;;;3.70;99.90;;;;;;5078767;28;20070;-76
2023/01/28 07:43:21;;;;;;;8.63;4.15;;;3.70;99.90;;;;;;5076055;28;20048;-76
2023/01/28 07:45:48;;;;;;;6.78;4.32;;;3.70;99.90;;;;;;5060449;28;20040;-77
2023/01/28 07:48:15;;;;;;;5.90;4.38;;;3.70;99.90;;;;;;5078053;28;20398;-77
2023/01/28 07:50:42;;;;;;;5.45;4.50;;;3.80;99.90;;;;;;5070230;28;20355;-75
2023/01/28 07:53:09;;;;;;;7.22;4.43;;;3.80;99.90;;;;;;5057794;28;20041;-77
2023/01/28 07:55:36;;;;;;;6.55;4.25;;;3.80;99.90;;;;;;5056749;28;20056;-76
2023/01/28 07:58:02;;;;;;;6.28;4.38;;;3.80;99.90;;;;;;5056595;28;20090;-77
2023/01/28 08:00:29;;;;;;;8.45;4.40;;;3.80;99.90;;;;;;5057686;28;20120;-76
2023/01/28 08:02:56;;;;;;;7.57;4.88;;;3.80;99.90;;;;;;5055648;28;20048;-76
2023/01/28 08:05:23;;;;;;;7.40;4.57;;;3.70;99.90;;;;;;5057999;28;20037;-75
2023/01/28 08:07:50;;;;;;;7.82;4.82;;;3.70;99.90;;;;;;5056366;28;20029;-75
2023/01/28 08:10:17;;;;;;;6.95;4.50;;;3.70;99.90;;;;;;5055811;28;20052;-75
2023/01/28 08:12:43;;;;;;;6.90;4.65;;;3.80;99.90;;;;;;5056596;28;20502;-75
2023/01/28 08:15:10;;;;;;;14.88;6.28;;;3.80;99.90;;;;;;5056559;28;20041;-75
2023/01/28 08:17:37;;;;;;;9.02;5.63;;;3.80;99.90;;;;;;5045924;28;20060;-77
2023/01/28 08:20:03;;;;;;;54.50;27.25;;;3.80;99.90;;;;;;5020038;28;20045;-77
2023/01/28 08:22:30;;;;;;;28.38;15.13;;;3.80;99.90;;;;;;5036232;28;20454;-76
2023/01/28 08:24:57;;;;;;;43.47;20.92;;;3.80;99.90;;;;;;5037053;28;20037;-77
2023/01/28 08:27:23;;;;;;;29.42;15.93;;;3.80;99.90;;;;;;5046847;28;20055;-75
2023/01/28 08:29:50;;;;;;;17.50;9.73;;;3.80;99.90;;;;;;5055229;28;20088;-76
2023/01/28 08:32:17;;;;;;;13.02;7.93;;;3.80;99.90;;;;;;5039375;28;20049;-76
2023/01/28 08:34:43;;;;;;;11.25;6.88;;;3.80;99.90;;;;;;5039855;28;20366;-76
2023/01/28 08:37:10;;;;;;;7.07;5.05;;;3.80;99.90;;;;;;5022140;28;20053;-75
2023/01/28 08:39:37;;;;;;;6.90;4.50;;;3.80;99.90;;;;;;5020008;28;20049;-76
2023/01/28 08:42:03;;;;;;;9.15;5.20;;;3.80;99.90;;;;;;5037174;28;20057;-77
2023/01/28 08:44:31;;;;;;;6.47;4.60;;;3.80;99.90;;;;;;5033859;28;20041;-76
2023/01/28 08:46:58;;;;;;;9.68;5.40;;;3.90;99.90;;;;;;5039650;28;20371;-76
2023/01/28 08:49:24;;;;;;;8.07;4.45;;;3.90;99.90;;;;;;5038210;28;20051;-76
2023/01/28 08:51:51;;;;;;;6.47;4.70;;;4.00;99.90;;;;;;5056336;28;20529;-76
2023/01/28 08:54:18;;;;;;;8.48;5.13;;;4.00;99.90;;;;;;5057025;28;20055;-76
2023/01/28 08:56:45;;;;;;;9.43;4.97;;;4.10;99.90;;;;;;5038274;28;20056;-76
2023/01/28 08:59:11;;;;;;;7.00;4.70;;;4.10;99.90;;;;;;5050988;28;20057;-77
2023/01/28 09:01:38;;;;;;;6.82;4.90;;;4.10;99.90;;;;;;5041394;28;20111;-76
2023/01/28 09:04:05;;;;;;;9.75;5.68;;;4.20;99.90;;;;;;5037529;28;20452;-76
2023/01/28 09:06:32;;;;;;;10.75;6.90;;;4.20;99.90;;;;;;5050128;28;20091;-75
2023/01/28 09:08:58;;;;;;;11.02;6.05;;;4.30;99.90;;;;;;5026867;28;20049;-76
2023/01/28 09:11:25;;;;;;;11.32;6.97;;;4.40;99.90;;;;;;5019499;28;20443;-76
2023/01/28 09:13:52;;;;;;;7.22;6.47;;;4.50;99.90;;;;;;5008434;28;20045;-76
2023/01/28 09:16:18;;;;;;;11.25;6.60;;;4.50;99.90;;;;;;5042977;28;20448;-77
2023/01/28 09:18:47;;;;;;;11.10;6.97;;;4.60;99.90;;;;;;5035895;28;20507;-76
2023/01/28 09:21:13;;;;;;;9.38;7.45;;;4.60;99.90;;;;;;5036140;28;20041;-76
2023/01/28 09:23:40;;;;;;;7.85;6.65;;;4.70;99.90;;;;;;5045908;28;20041;-76
2023/01/28 09:26:08;;;;;;;9.90;6.45;;;4.80;99.90;;;;;;5052036;28;20056;-76
2023/01/28 09:28:34;;;;;;;8.00;6.20;;;4.80;99.90;;;;;;5055602;28;20045;-76
2023/01/28 09:31:01;;;;;;;11.45;6.63;;;4.80;99.90;;;;;;5037500;28;20037;-77
2023/01/28 09:33:29;;;;;;;9.05;6.60;;;4.90;99.90;;;;;;5046143;28;20455;-79
2023/01/28 09:35:56;;;;;;;11.98;7.63;;;4.90;99.90;;;;;;5045900;28;20037;-80
2023/01/28 09:38:22;;;;;;;10.55;7.60;;;5.00;99.90;;;;;;5030844;28;20535;-79
2023/01/28 09:40:49;;;;;;;12.25;6.55;;;5.00;99.90;;;;;;5035838;28;20053;-79
2023/01/28 09:43:16;;;;;;;11.25;7.20;;;5.10;99.90;;;;;;5034663;28;20037;-79
2023/01/28 09:45:43;;;;;;;11.13;6.05;;;5.10;99.90;;;;;;5037126;28;20037;-78
2023/01/28 09:48:10;;;;;;;7.10;6.40;;;5.10;99.90;;;;;;5026105;28;20037;-79
2023/01/28 09:50:37;;;;;;;14.73;7.32;;;5.20;99.90;;;;;;5033549;28;20464;-79
2023/01/28 09:53:04;;;;;;;10.18;7.63;;;5.30;99.90;;;;;;5036989;28;20055;-79
2023/01/28 09:55:30;;;;;;;11.13;6.78;;;5.40;99.90;;;;;;5019580;28;20037;-80
2023/01/28 09:57:57;;;;;;;10.02;7.18;;;5.40;99.90;;;;;;5051258;28;20052;-79
2023/01/28 10:00:23;;;;;;;10.80;7.00;;;5.40;99.90;;;;;;5023047;28;20057;-79
2023/01/28 10:02:50;;;;;;;11.15;6.70;;;5.50;99.90;;;;;;5034339;28;20049;-77
2023/01/28 10:05:17;;;;;;;10.45;6.00;;;5.60;99.90;;;;;;5027478;28;20033;-78
2023/01/28 10:07:43;;;;;;;9.73;7.18;;;5.70;99.90;;;;;;5050768;28;20185;-79
2023/01/28 10:10:10;;;;;;;10.60;7.22;;;5.70;99.90;;;;;;5035223;28;20451;-78
2023/01/28 10:12:37;;;;;;;12.93;6.78;;;5.60;99.90;;;;;;5054990;28;20362;-78
2023/01/28 10:15:03;;;;;;;7.53;6.72;;;5.70;99.90;;;;;;5054660;28;20045;-79
2023/01/28 10:17:30;;;;;;;11.30;6.80;;;5.60;99.90;;;;;;5043636;28;20395;-80
2023/01/28 10:19:57;;;;;;;7.50;6.18;;;5.60;99.90;;;;;;5044392;28;20041;-79
2023/01/28 10:22:24;;;;;;;7.53;6.32;;;5.70;99.90;;;;;;5044826;28;20041;-78
2023/01/28 10:24:51;;;;;;;12.00;6.60;;;5.70;99.90;;;;;;5026477;28;20055;-79
2023/01/28 10:27:18;;;;;;;12.43;7.05;;;5.70;99.90;;;;;;5025252;28;20472;-79
2023/01/28 10:29:45;;;;;;;11.35;7.10;;;5.80;99.90;;;;;;5044455;28;20032;-79
2023/01/28 10:32:12;;;;;;;8.15;6.47;;;5.90;99.90;;;;;;5028689;28;20091;-78
2023/01/28 10:37:08;;;;;;;8.13;6.97;;;6.10;99.90;;;;;;5026112;28;20046;-77
2023/01/28 10:39:35;;;;;;;8.38;6.45;;;6.20;99.90;;;;;;5045234;28;20095;-78
2023/01/28 10:42:02;;;;;;;11.90;6.32;;;6.30;99.90;;;;;;5043274;28;20160;-81
2023/01/28 10:44:29;;;;;;;11.02;6.95;;;6.40;99.90;;;;;;5014002;28;20345;-80
2023/01/28 10:46:56;;;;;;;11.15;7.13;;;6.40;99.90;;;;;;5040399;28;20409;-79
2023/01/28 10:49:22;;;;;;;10.30;6.40;;;6.50;99.90;;;;;;5016710;28;20037;-79
2023/01/28 10:51:49;;;;;;;10.52;6.85;;;6.60;99.90;;;;;;5017102;28;20539;-79
2023/01/28 10:54:16;;;;;;;9.07;6.25;;;6.60;99.90;;;;;;5017353;28;20453;-80
2023/01/28 10:56:42;;;;;;;7.82;5.47;;;6.70;99.90;;;;;;5033576;28;20048;-79
2023/01/28 10:59:09;;;;;;;9.88;6.13;;;6.80;99.90;;;;;;5017570;28;20048;-79
2023/01/28 11:01:35;;;;;;;6.97;5.75;;;6.80;99.90;;;;;;5034724;28;20048;-79
2023/01/28 11:04:03;;;;;;;9.57;6.40;;;6.90;99.90;;;;;;5033632;28;20056;-78
2023/01/28 11:06:30;;;;;;;8.45;5.20;;;7.10;99.90;;;;;;5016969;28;20442;-78
2023/01/28 11:08:57;;;;;;;6.50;5.05;;;7.30;99.90;;;;;;5034206;28;20429;-79
2023/01/28 11:11:26;;;;;;;10.60;5.45;;;7.60;99.90;;;;;;5038767;28;20079;-79
2023/01/28 11:13:57;;;;;;;6.80;5.28;;;8.00;99.90;;;;;;5038602;28;20069;-79
2023/01/28 11:16:23;;;;;;;8.02;6.03;;;8.00;99.90;;;;;;5037640;28;20041;-78
2023/01/28 11:18:50;;;;;;;13.30;6.68;;;8.00;99.90;;;;;;5038489;28;20037;-80
2023/01/28 11:21:17;;;;;;;6.35;5.65;;;8.20;99.90;;;;;;5021728;28;20037;-79
2023/01/28 11:23:43;;;;;;;11.50;6.30;;;8.40;99.90;;;;;;5037662;28;20052;-79
2023/01/28 11:26:10;;;;;;;8.30;6.63;;;8.30;99.90;;;;;;5020664;28;20050;-81
2023/01/28 11:28:37;;;;;;;11.20;7.35;;;8.40;99.90;;;;;;5020976;28;20372;-77
2023/01/28 11:31:03;;;;;;;9.88;6.57;;;8.80;99.90;;;;;;5037817;28;20348;-79
2023/01/28 11:33:32;;;;;;;10.10;7.10;;;9.00;99.90;;;;;;5038535;28;20121;-79
2023/01/28 11:35:59;;;;;;;9.10;7.10;;;8.70;99.90;;;;;;5037219;28;20041;-83
2023/01/28 11:38:26;;;;;;;9.60;7.93;;;8.50;99.90;;;;;;5038135;28;20037;-79
2023/01/28 11:40:52;;;;;;;10.68;7.45;;;8.30;99.90;;;;;;5038063;28;20558;-79
2023/01/28 11:43:20;;;;;;;10.10;6.55;;;8.20;99.90;;;;;;5037205;28;20037;-79
2023/01/28 11:45:47;;;;;;;13.07;8.27;;;8.20;99.90;;;;;;5020898;28;20057;-79
2023/01/28 11:48:14;;;;;;;9.68;8.43;;;8.10;99.90;;;;;;5020452;28;20140;-81
2023/01/28 11:50:40;;;;;;;10.63;7.85;;;8.10;99.90;;;;;;5051396;28;20048;-81
2023/01/28 11:53:08;;;;;;;16.35;8.77;;;8.10;99.90;;;;;;5035866;28;20037;-81
2023/01/28 11:55:35;;;;;;;13.52;8.95;;;8.00;99.90;;;;;;5039213;28;20066;-79
2023/01/28 11:58:02;;;;;;;11.57;7.65;;;7.90;99.90;;;;;;5032105;28;20041;-80
2023/01/28 12:00:30;;;;;;;9.07;6.85;;;7.90;99.90;;;;;;5034867;28;20049;-78
2023/01/28 12:02:58;;;;;;;12.35;7.57;;;7.90;99.90;;;;;;5047665;28;20051;-77
2023/01/28 12:05:24;;;;;;;11.15;7.57;;;7.90;99.90;;;;;;5030752;28;20083;-79
2023/01/28 12:07:51;;;;;;;12.45;8.07;;;7.90;99.90;;;;;;5031183;28;20037;-79
2023/01/28 12:10:18;;;;;;;9.68;7.97;;;7.80;99.90;;;;;;5045085;28;20443;-79
2023/01/28 12:12:45;;;;;;;13.10;8.75;;;7.90;99.90;;;;;;5045677;28;20038;-79
2023/01/28 12:15:11;;;;;;;13.52;8.93;;;8.00;99.90;;;;;;5037439;28;20045;-80
2023/01/28 12:17:38;;;;;;;12.38;8.45;;;8.00;99.90;;;;;;5036030;28;20487;-78
2023/01/28 12:20:04;;;;;;;13.52;9.23;;;8.00;99.90;;;;;;5056862;28;20464;-80
2023/01/28 12:22:31;;;;;;;14.23;9.75;;;8.10;99.90;;;;;;5055542;28;20041;-78
2023/01/28 12:24:58;;;;;;;16.63;11.18;;;8.10;99.90;;;;;;5056004;28;20463;-79
2023/01/28 12:27:25;;;;;;;20.27;10.93;;;8.10;99.90;;;;;;5066113;28;20040;-79
2023/01/28 12:29:51;;;;;;;18.05;10.73;;;8.00;99.90;;;;;;5075555;28;20467;-78
2023/01/28 12:32:18;;;;;;;15.95;11.30;;;8.00;99.90;;;;;;5076540;28;20128;-79
2023/01/28 12:34:45;;;;;;;13.73;11.30;;;8.10;99.90;;;;;;5076905;28;20482;-79
2023/01/28 12:37:11;;;;;;;22.73;12.80;;;8.10;99.90;;;;;;5075861;28;20030;-81
2023/01/28 12:39:38;;;;;;;18.15;11.48;;;8.10;99.90;;;;;;5076153;28;20055;-80
2023/01/28 12:42:05;;;;;;;15.77;10.80;;;8.20;99.90;;;;;;5059231;28;20045;-79
2023/01/28 12:44:31;;;;;;;19.50;12.82;;;8.30;99.90;;;;;;5055572;28;20049;-78
2023/01/28 12:46:58;;;;;;;17.20;11.32;;;8.40;99.90;;;;;;5072308;28;20045;-81
2023/01/28 12:49:25;;;;;;;16.75;11.18;;;8.30;99.90;;;;;;5072164;28;20123;-81
2023/01/28 12:51:54;;;;;;;14.20;11.68;;;8.30;99.90;;;;;;5057027;28;20040;-79
2023/01/28 12:54:21;;;;;;;13.63;10.65;;;8.10;99.90;;;;;;5057385;28;20037;-80
2023/01/28 12:56:48;;;;;;;17.67;10.57;;;8.10;99.90;;;;;;5054788;28;20040;-79
2023/01/28 12:59:15;;;;;;;15.40;10.63;;;7.90;99.90;;;;;;5055645;28;20441;-80
2023/01/28 13:01:41;;;;;;;14.80;10.90;;;8.00;99.90;;;;;;5055644;28;20383;-81
2023/01/28 13:04:08;;;;;;;12.77;10.75;;;8.00;99.90;;;;;;5055767;28;20040;-81
2023/01/28 13:06:35;;;;;;;14.55;9.93;;;8.00;99.90;;;;;;5055164;28;20102;-80
2023/01/28 13:09:02;;;;;;;14.45;10.95;;;8.00;99.90;;;;;;5055847;28;20069;-81
2023/01/28 13:11:28;;;;;;;14.30;9.82;;;7.90;99.90;;;;;;5056514;28;20071;-81
2023/01/28 13:13:55;;;;;;;12.32;9.65;;;8.00;99.90;;;;;;5055291;28;20037;-80
2023/01/28 13:16:22;;;;;;;12.38;9.55;;;8.00;99.90;;;;;;5055084;28;20102;-80
2023/01/28 13:19:02;;;;;;;17.08;10.32;;;8.00;99.90;;;;;;5056211;28;20045;-79
2023/01/28 13:21:29;;;;;;;11.40;9.60;;;8.00;99.90;;;;;;5038927;28;20033;-79
2023/01/28 13:24:00;;;;;;;12.50;9.10;;;8.10;99.90;;;;;;5038514;28;20072;-80
2023/01/28 13:26:26;;;;;;;14.30;10.50;;;7.90;99.90;;;;;;5058138;28;20470;-78
2023/01/28 13:28:53;;;;;;;15.38;10.73;;;7.90;99.90;;;;;;5074348;28;20340;-80
2023/01/28 13:31:20;;;;;;;13.43;9.55;;;7.90;99.90;;;;;;5075837;28;20042;-78